Terminal Aerodrome Forecast
Issued by NWS

Home | Current Version | Previous Version | Text Only | Print | Product List | Glossary On
Versions: 1 2 3 4 5 6 7 8 9 10 11 12 13 14 15 16 17
303
FTUS43 KFGF 271130
TAFTVF
TAF
KTVF 271130Z 2712/2812 15009KT P6SM FEW070 BKN090
      TEMPO 2712/2714 -SHRA BKN070 OVC090
     FM271400 18008KT P6SM -TSRA OVC050CB
     FM271800 18010KT P6SM VCTS BKN060CB
     FM272200 18009KT P6SM BKN200
     FM280200 15006KT P6SM SCT200=

USA.gov is the U.S. government's official web portal to all federal, state and local government web resources and services.